Time;durP1;ratioP1;P1;durP2;ratioP2;P2;SDS_P1;SDS_P2;PMS_P1;PMS_P2;Temp;Humidity;BMP_temperature;BMP_pressure;BME280_temperature;BME280_humidity;BME280_pressure;Samples;Min_cycle;Max_cycle;Signal;HPM_P1;HPM_P2
2023/04/29 00:00:08;;;;;;;1.40;1.30;;;14.50;99.90;;;;;;5074753;28;20496;-71
2023/04/29 00:02:34;;;;;;;2.23;1.00;;;14.40;99.90;;;;;;5074589;28;20775;-72
2023/04/29 00:05:00;;;;;;;3.67;1.10;;;14.40;99.90;;;;;;5073522;28;20444;-71
2023/04/29 00:07:25;;;;;;;1.80;1.37;;;14.40;99.90;;;;;;5073196;28;20184;-71
2023/04/29 00:09:52;;;;;;;1.97;1.20;;;14.40;99.90;;;;;;5073121;28;21230;-70
2023/04/29 00:12:17;;;;;;;2.23;1.30;;;14.50;99.90;;;;;;5072491;28;20197;-71
2023/04/29 00:14:43;;;;;;;1.27;1.17;;;14.40;99.90;;;;;;5071740;28;20460;-71
2023/04/29 00:17:09;;;;;;;1.30;1.20;;;14.50;99.90;;;;;;5070070;28;20191;-71
2023/04/29 00:19:34;;;;;;;1.60;1.13;;;14.40;99.90;;;;;;5069532;28;20206;-71
2023/04/29 00:22:00;;;;;;;1.53;1.40;;;14.40;99.90;;;;;;5069676;28;20218;-71
2023/04/29 00:24:26;;;;;;;5.07;1.53;;;14.40;99.90;;;;;;5069469;28;20690;-71
2023/04/29 00:26:52;;;;;;;1.43;1.27;;;14.30;99.90;;;;;;5069353;28;20195;-71
2023/04/29 00:29:17;;;;;;;1.53;1.40;;;14.30;99.90;;;;;;5068988;28;20570;-71
2023/04/29 00:31:44;;;;;;;2.47;1.43;;;14.30;99.90;;;;;;5068953;28;20187;-71
2023/04/29 00:34:09;;;;;;;5.70;1.47;;;14.30;99.90;;;;;;5068683;28;20182;-71
2023/04/29 00:36:35;;;;;;;5.93;1.40;;;14.20;99.90;;;;;;5068813;28;20413;-71
2023/04/29 00:39:02;;;;;;;1.87;1.40;;;14.20;99.90;;;;;;5068655;28;20629;-71
2023/04/29 00:41:28;;;;;;;4.20;1.50;;;14.20;99.90;;;;;;5068741;28;20179;-72
2023/04/29 00:43:54;;;;;;;2.60;1.20;;;14.10;99.90;;;;;;5068638;28;20497;-72
2023/04/29 00:46:20;;;;;;;1.30;1.10;;;14.20;99.90;;;;;;5068753;28;20550;-71
2023/04/29 00:48:45;;;;;;;3.63;1.80;;;14.20;99.90;;;;;;5068747;28;20613;-71
2023/04/29 00:51:12;;;;;;;1.50;1.40;;;14.20;99.90;;;;;;5068512;28;20179;-71
2023/04/29 00:53:38;;;;;;;3.07;1.37;;;14.20;99.90;;;;;;5068505;28;20601;-70
2023/04/29 00:56:06;;;;;;;4.50;1.40;;;14.30;99.90;;;;;;5068394;28;20502;-71
2023/04/29 00:58:34;;;;;;;1.30;1.20;;;14.20;99.90;;;;;;5068510;28;20504;-70
2023/04/29 01:01:01;;;;;;;2.60;1.40;;;14.20;99.90;;;;;;5068503;28;20475;-71
2023/04/29 01:03:30;;;;;;;6.00;2.00;;;14.30;99.90;;;;;;5068425;28;20418;-70
2023/04/29 01:06:40;;;;;;;2.87;1.13;;;14.20;99.90;;;;;;5068173;28;20433;-71
2023/04/29 01:09:12;;;;;;;2.63;1.40;;;14.30;99.90;;;;;;5068379;28;20459;-71
2023/04/29 01:12:16;;;;;;;1.70;1.60;;;14.20;99.90;;;;;;5068343;28;20412;-71
2023/04/29 01:14:47;;;;;;;1.87;1.73;;;14.30;99.90;;;;;;5068124;28;20959;-71
2023/04/29 01:17:18;;;;;;;4.60;1.70;;;14.20;99.90;;;;;;5067550;28;20464;-70
2023/04/29 01:19:46;;;;;;;1.33;1.23;;;14.30;99.90;;;;;;5068431;28;20472;-71
2023/04/29 01:22:17;;;;;;;1.93;1.23;;;14.20;99.90;;;;;;5068166;28;20432;-71
2023/04/29 01:24:43;;;;;;;1.83;1.73;;;14.20;99.90;;;;;;5068235;28;20442;-71
2023/04/29 01:27:26;;;;;;;6.70;1.40;;;14.20;99.90;;;;;;5068385;28;20422;-71
2023/04/29 01:30:18;;;;;;;3.97;1.60;;;14.10;99.90;;;;;;5068254;28;20757;-71
2023/04/29 01:33:07;;;;;;;3.00;1.60;;;14.10;99.90;;;;;;5067985;28;20444;-71
2023/04/29 01:35:33;;;;;;;3.57;2.03;;;14.10;99.90;;;;;;5068115;28;20440;-71
2023/04/29 01:38:36;;;;;;;1.43;1.33;;;14.00;99.90;;;;;;5068281;28;20727;-71
2023/04/29 01:41:44;;;;;;;1.83;1.70;;;14.00;99.90;;;;;;5068183;28;20220;-71
2023/04/29 01:44:16;;;;;;;1.83;1.63;;;14.00;99.90;;;;;;5066633;28;20826;-71
2023/04/29 01:46:47;;;;;;;2.27;1.97;;;13.90;99.90;;;;;;5070041;28;20464;-71
2023/04/29 01:49:13;;;;;;;2.43;1.80;;;13.90;99.90;;;;;;5069508;28;20759;-71
2023/04/29 01:51:39;;;;;;;5.30;1.50;;;13.80;99.90;;;;;;5069964;28;20425;-70
2023/04/29 01:54:04;;;;;;;3.10;1.93;;;13.80;99.90;;;;;;5068720;28;20262;-70
2023/04/29 01:56:30;;;;;;;4.70;1.70;;;13.80;99.90;;;;;;5068609;28;20559;-70
2023/04/29 01:58:55;;;;;;;4.70;2.00;;;13.90;99.90;;;;;;5068635;28;20546;-70
2023/04/29 02:01:21;;;;;;;1.90;1.80;;;13.90;99.90;;;;;;5068011;28;20187;-70
2023/04/29 02:03:46;;;;;;;4.73;1.50;;;13.80;99.90;;;;;;5068108;28;20182;-70
2023/04/29 02:06:12;;;;;;;3.03;1.80;;;13.80;99.90;;;;;;5068304;28;20276;-70
2023/04/29 02:08:38;;;;;;;2.57;1.30;;;13.80;99.90;;;;;;5068261;28;20611;-70
2023/04/29 02:11:03;;;;;;;2.80;1.40;;;13.70;99.90;;;;;;5068485;28;20247;-70
2023/04/29 02:13:29;;;;;;;7.97;3.70;;;13.70;99.90;;;;;;5067041;28;20210;-70
2023/04/29 02:15:55;;;;;;;2.23;1.50;;;13.70;99.90;;;;;;5068454;28;20264;-70
2023/04/29 02:18:20;;;;;;;3.00;1.83;;;13.70;99.90;;;;;;5068366;28;20730;-71
2023/04/29 02:20:46;;;;;;;2.50;1.60;;;13.60;99.90;;;;;;5068110;28;20760;-71
2023/04/29 02:23:12;;;;;;;2.50;1.70;;;13.60;99.90;;;;;;5068466;28;20187;-71
2023/04/29 02:25:37;;;;;;;5.20;1.90;;;13.50;99.90;;;;;;5068231;28;20574;-71
2023/04/29 02:28:03;;;;;;;1.53;1.43;;;13.50;99.90;;;;;;5070027;28;20958;-72
2023/04/29 02:30:29;;;;;;;2.53;2.00;;;13.50;99.90;;;;;;5071719;28;20723;-71
2023/04/29 02:32:55;;;;;;;6.83;1.97;;;13.50;99.90;;;;;;5071636;28;20191;-71
2023/04/29 02:35:20;;;;;;;1.90;1.57;;;13.60;99.90;;;;;;5071286;28;20437;-71
2023/04/29 02:37:46;;;;;;;1.50;1.40;;;13.60;99.90;;;;;;5071222;28;20207;-71
2023/04/29 02:40:12;;;;;;;2.70;1.67;;;13.70;99.90;;;;;;5070977;28;20476;-71
2023/04/29 02:42:37;;;;;;;1.57;1.40;;;13.60;99.90;;;;;;5071103;28;20205;-71
2023/04/29 02:45:03;;;;;;;1.50;1.40;;;13.60;99.90;;;;;;5071131;28;20711;-71
2023/04/29 02:47:29;;;;;;;2.00;1.43;;;13.60;99.90;;;;;;5071844;28;20182;-71
2023/04/29 02:49:54;;;;;;;2.60;1.73;;;13.60;99.90;;;;;;5071467;28;20421;-71
2023/04/29 02:52:20;;;;;;;2.30;2.07;;;13.60;99.90;;;;;;5071262;28;20666;-71
2023/04/29 02:54:46;;;;;;;3.03;1.73;;;13.60;99.90;;;;;;5071218;28;20202;-71
2023/04/29 02:57:11;;;;;;;1.70;1.60;;;13.60;99.90;;;;;;5071376;28;20550;-70
2023/04/29 02:59:37;;;;;;;1.50;1.40;;;13.60;99.90;;;;;;5071443;28;20307;-71
2023/04/29 03:02:02;;;;;;;2.07;1.97;;;13.60;99.90;;;;;;5071151;28;20631;-70
2023/04/29 03:04:28;;;;;;;2.10;1.70;;;13.60;99.90;;;;;;5071176;28;20199;-71
2023/04/29 03:06:55;;;;;;;5.43;2.27;;;13.60;99.90;;;;;;5071561;28;20620;-71
2023/04/29 03:09:21;;;;;;;2.83;1.83;;;13.60;99.90;;;;;;5071077;28;20306;-71
2023/04/29 03:11:47;;;;;;;7.20;1.50;;;13.60;99.90;;;;;;5071084;28;20425;-71
2023/04/29 03:14:13;;;;;;;6.60;1.90;;;13.50;99.90;;;;;;5070806;28;21013;-71
2023/04/29 03:16:38;;;;;;;1.93;1.80;;;13.60;99.90;;;;;;5070956;28;20274;-71
2023/04/29 03:19:04;;;;;;;2.00;1.90;;;13.50;99.90;;;;;;5070948;28;20252;-70
2023/04/29 03:21:30;;;;;;;2.13;1.93;;;13.60;99.90;;;;;;5070823;28;20214;-70
2023/04/29 03:23:55;;;;;;;3.50;1.80;;;13.60;99.90;;;;;;5070648;28;20189;-70
2023/04/29 03:26:23;;;;;;;2.77;2.20;;;13.60;99.90;;;;;;5070797;28;20262;-71
2023/04/29 03:28:48;;;;;;;3.80;2.20;;;13.60;99.90;;;;;;5070758;28;20209;-71
2023/04/29 03:31:15;;;;;;;2.53;2.03;;;13.60;99.90;;;;;;5070824;28;20413;-71
2023/04/29 03:33:41;;;;;;;2.90;1.90;;;13.60;99.90;;;;;;5070122;28;20692;-71
2023/04/29 03:36:07;;;;;;;2.10;2.00;;;13.60;99.90;;;;;;5070010;28;20446;-71
2023/04/29 03:38:33;;;;;;;2.37;2.13;;;13.60;99.90;;;;;;5069686;28;20246;-71
2023/04/29 03:40:59;;;;;;;1.90;1.80;;;13.50;99.90;;;;;;5069606;28;20473;-70
2023/04/29 03:43:25;;;;;;;4.80;1.97;;;13.60;99.90;;;;;;5070277;28;20418;-70
2023/04/29 03:45:51;;;;;;;7.57;2.20;;;13.60;99.90;;;;;;5069953;28;20436;-70
2023/04/29 03:48:17;;;;;;;1.80;1.70;;;13.60;99.90;;;;;;5069927;28;20178;-70
2023/04/29 03:50:42;;;;;;;3.63;1.80;;;13.50;99.90;;;;;;5069989;28;20475;-70
2023/04/29 03:53:08;;;;;;;3.93;2.23;;;13.50;99.90;;;;;;5070657;28;20528;-71
2023/04/29 03:55:34;;;;;;;7.43;2.00;;;13.40;99.90;;;;;;5070159;28;20215;-72
2023/04/29 03:58:00;;;;;;;3.70;1.93;;;13.40;99.90;;;;;;5070399;28;20266;-71
2023/04/29 04:00:29;;;;;;;2.20;2.00;;;13.40;99.90;;;;;;5070185;28;20551;-70
2023/04/29 04:02:56;;;;;;;2.63;1.90;;;13.40;99.90;;;;;;5069841;28;20183;-70
2023/04/29 04:05:24;;;;;;;6.83;1.70;;;13.40;99.90;;;;;;5069720;28;20475;-71
2023/04/29 04:07:50;;;;;;;2.30;2.10;;;13.50;99.90;;;;;;5070035;28;20427;-71
2023/04/29 04:10:15;;;;;;;3.90;2.80;;;13.50;99.90;;;;;;5070205;28;20927;-71
2023/04/29 04:12:41;;;;;;;5.43;2.50;;;13.50;99.90;;;;;;5069973;28;20428;-71
2023/04/29 04:15:07;;;;;;;3.63;1.87;;;13.50;99.90;;;;;;5069660;28;20633;-71
2023/04/29 04:17:33;;;;;;;3.03;1.90;;;13.50;99.90;;;;;;5069386;28;20194;-71
2023/04/29 04:19:58;;;;;;;2.90;2.10;;;13.50;99.90;;;;;;5069024;28;20468;-70
2023/04/29 04:22:24;;;;;;;2.40;2.20;;;13.50;99.90;;;;;;5069503;28;20278;-71
2023/04/29 04:24:49;;;;;;;5.90;2.13;;;13.50;99.90;;;;;;5069298;28;20206;-70
2023/04/29 04:27:15;;;;;;;4.10;2.00;;;13.40;99.90;;;;;;5069468;28;20547;-71
2023/04/29 04:29:40;;;;;;;5.30;2.20;;;13.40;99.90;;;;;;5069566;28;20266;-71
2023/04/29 04:32:06;;;;;;;2.37;2.17;;;13.40;99.90;;;;;;5069559;28;20682;-71
2023/04/29 04:34:32;;;;;;;3.63;2.10;;;13.40;99.90;;;;;;5069483;28;20641;-71
2023/04/29 04:36:57;;;;;;;2.80;2.60;;;13.40;99.90;;;;;;5069699;28;20185;-71
2023/04/29 04:39:23;;;;;;;5.67;2.00;;;13.40;99.90;;;;;;5069302;28;20693;-71
2023/04/29 04:41:49;;;;;;;2.10;2.00;;;13.40;99.90;;;;;;5069155;28;20239;-71
2023/04/29 04:44:15;;;;;;;2.00;1.90;;;13.40;99.90;;;;;;5069208;28;20205;-71
2023/04/29 04:46:41;;;;;;;2.77;2.00;;;13.30;99.90;;;;;;5068965;28;20225;-70
2023/04/29 04:49:06;;;;;;;2.57;2.37;;;13.30;99.90;;;;;;5068788;28;20963;-71
2023/04/29 04:51:32;;;;;;;2.97;2.10;;;13.30;99.90;;;;;;5067788;28;20517;-71
2023/04/29 04:53:58;;;;;;;2.93;2.50;;;13.30;99.90;;;;;;5068879;28;20195;-70
2023/04/29 04:56:23;;;;;;;3.03;2.20;;;13.30;99.90;;;;;;5084381;28;20190;-70
2023/04/29 04:58:49;;;;;;;2.27;1.97;;;13.30;99.90;;;;;;5068557;28;20190;-71
2023/04/29 05:01:15;;;;;;;4.03;2.53;;;13.30;99.90;;;;;;5068933;28;20764;-71
2023/04/29 05:03:40;;;;;;;6.80;2.57;;;13.30;99.90;;;;;;5067299;28;20185;-71
2023/04/29 05:06:06;;;;;;;6.03;2.13;;;13.30;99.90;;;;;;5068456;28;20513;-70
2023/04/29 05:08:31;;;;;;;4.77;2.63;;;13.40;99.90;;;;;;5068506;28;20185;-71
2023/04/29 05:10:57;;;;;;;3.23;2.40;;;13.40;99.90;;;;;;5068722;28;20331;-71
2023/04/29 05:13:24;;;;;;;2.50;2.30;;;13.40;99.90;;;;;;5068587;28;20306;-70
2023/04/29 05:15:50;;;;;;;2.40;2.30;;;13.40;99.90;;;;;;5068417;28;20244;-70
2023/04/29 05:18:16;;;;;;;3.53;2.73;;;13.50;99.90;;;;;;5068585;28;20975;-71
2023/04/29 05:20:41;;;;;;;2.23;2.07;;;13.50;99.90;;;;;;5069743;28;20582;-72
2023/04/29 05:23:07;;;;;;;3.57;2.43;;;13.50;99.90;;;;;;5069471;28;20193;-71
2023/04/29 05:25:33;;;;;;;4.20;2.47;;;13.50;99.90;;;;;;5070043;28;20203;-71
2023/04/29 05:27:59;;;;;;;4.43;2.80;;;13.50;99.90;;;;;;5069977;28;20416;-71
2023/04/29 05:30:24;;;;;;;3.37;3.07;;;13.40;99.90;;;;;;5069303;28;20525;-70
2023/04/29 05:32:50;;;;;;;3.17;2.80;;;13.40;99.90;;;;;;5069422;28;20187;-71
2023/04/29 05:35:16;;;;;;;3.90;2.80;;;13.40;99.90;;;;;;5068781;28;20216;-70
2023/04/29 05:37:42;;;;;;;2.50;2.30;;;13.40;99.90;;;;;;5068739;28;20185;-71
2023/04/29 05:40:08;;;;;;;5.17;3.00;;;13.30;99.90;;;;;;5068013;28;20509;-70
2023/04/29 05:42:34;;;;;;;2.83;2.63;;;13.30;99.90;;;;;;5068173;28;20278;-70
2023/04/29 05:44:59;;;;;;;4.70;3.43;;;13.30;99.90;;;;;;5067971;28;20475;-70
2023/04/29 05:47:25;;;;;;;2.93;2.73;;;13.30;99.90;;;;;;5068119;28;20244;-70
2023/04/29 05:49:51;;;;;;;2.40;2.30;;;13.30;99.90;;;;;;5068044;28;20193;-70
2023/04/29 05:52:16;;;;;;;4.70;2.80;;;13.40;99.90;;;;;;5068371;28;20423;-70
2023/04/29 05:54:42;;;;;;;2.93;2.73;;;13.30;99.90;;;;;;5068062;28;20217;-70
2023/04/29 05:57:08;;;;;;;2.50;2.40;;;13.20;99.90;;;;;;5068438;28;20255;-70
2023/04/29 05:59:33;;;;;;;3.10;2.80;;;13.30;99.90;;;;;;5068089;28;20227;-71
2023/04/29 06:01:59;;;;;;;2.80;2.60;;;13.40;99.90;;;;;;5068649;28;20191;-70
2023/04/29 06:04:25;;;;;;;4.57;2.60;;;13.40;99.90;;;;;;5072276;28;20203;-70
2023/04/29 06:06:52;;;;;;;2.60;2.30;;;13.40;99.90;;;;;;5072055;28;20416;-71
2023/04/29 06:09:19;;;;;;;3.53;2.20;;;13.40;99.90;;;;;;5072144;28;20428;-70
2023/04/29 06:11:48;;;;;;;4.00;1.97;;;13.40;99.90;;;;;;5072467;28;20428;-70
2023/04/29 06:14:13;;;;;;;2.83;2.40;;;13.50;99.90;;;;;;5072407;28;20427;-70
2023/04/29 06:16:39;;;;;;;3.03;2.67;;;13.50;99.90;;;;;;5072298;28;20425;-70
2023/04/29 06:19:05;;;;;;;2.43;2.10;;;13.60;99.90;;;;;;5071546;28;20191;-70
2023/04/29 06:21:31;;;;;;;5.93;2.90;;;13.60;99.90;;;;;;5071576;28;20790;-70
2023/04/29 06:23:57;;;;;;;3.03;2.73;;;13.70;99.90;;;;;;5071304;28;20183;-70
2023/04/29 06:26:23;;;;;;;1.83;1.73;;;13.80;99.90;;;;;;5071417;28;20494;-70
2023/04/29 06:28:49;;;;;;;2.13;2.03;;;13.80;99.90;;;;;;5071518;28;20422;-70
2023/04/29 06:31:15;;;;;;;2.83;1.70;;;14.00;99.90;;;;;;5071826;28;20519;-71
2023/04/29 06:33:41;;;;;;;3.60;2.17;;;14.00;99.90;;;;;;5071621;28;20413;-70
2023/04/29 06:36:07;;;;;;;4.73;2.90;;;14.00;99.90;;;;;;5071576;28;20442;-70
2023/04/29 06:38:33;;;;;;;3.00;2.80;;;14.00;99.90;;;;;;5071662;28;20179;-70
2023/04/29 06:40:59;;;;;;;3.73;3.10;;;14.00;99.90;;;;;;5071323;28;20645;-70
2023/04/29 06:43:29;;;;;;;3.67;2.77;;;13.90;99.90;;;;;;5071635;28;20543;-70
2023/04/29 06:45:55;;;;;;;2.60;2.40;;;14.00;99.90;;;;;;5071632;28;20481;-70
2023/04/29 06:48:20;;;;;;;2.40;2.30;;;14.00;99.90;;;;;;5071375;28;20421;-70
2023/04/29 06:50:54;;;;;;;2.30;2.10;;;14.20;99.90;;;;;;5071331;28;20504;-70
2023/04/29 06:53:20;;;;;;;1.80;1.67;;;14.30;99.90;;;;;;5070915;28;20194;-70
2023/04/29 06:55:46;;;;;;;2.37;2.20;;;14.20;99.90;;;;;;5070779;28;20815;-70
2023/04/29 06:58:15;;;;;;;4.73;3.60;;;14.20;99.90;;;;;;5070703;28;20417;-70
2023/04/29 07:00:47;;;;;;;2.90;2.57;;;14.20;99.90;;;;;;5070456;28;20547;-70
2023/04/29 07:03:13;;;;;;;5.73;2.47;;;14.20;99.90;;;;;;5070172;28;20401;-71
2023/04/29 07:05:40;;;;;;;5.33;2.17;;;14.20;99.90;;;;;;5069536;28;20502;-70
2023/04/29 07:08:06;;;;;;;4.00;2.13;;;14.20;99.90;;;;;;5069303;28;20432;-70
2023/04/29 07:10:32;;;;;;;2.40;2.20;;;14.30;99.90;;;;;;5069341;28;20428;-70
2023/04/29 07:12:59;;;;;;;2.73;2.50;;;14.40;99.90;;;;;;5069447;28;20428;-70
2023/04/29 07:15:26;;;;;;;4.30;2.80;;;14.40;99.90;;;;;;5083368;28;20736;-70
2023/04/29 07:17:51;;;;;;;2.57;2.37;;;14.60;99.90;;;;;;5068898;28;21081;-70
2023/04/29 07:20:18;;;;;;;6.40;2.10;;;14.60;99.90;;;;;;5067719;28;20472;-69
2023/04/29 07:22:43;;;;;;;2.80;2.10;;;14.80;99.90;;;;;;5069064;28;20626;-70
2023/04/29 07:25:09;;;;;;;4.30;2.43;;;14.80;99.90;;;;;;5068569;28;20548;-70
2023/04/29 07:27:36;;;;;;;3.70;1.97;;;14.70;99.90;;;;;;5068595;28;20609;-70
2023/04/29 07:30:02;;;;;;;2.37;2.17;;;14.60;99.90;;;;;;5068502;28;20461;-70
2023/04/29 07:32:30;;;;;;;2.60;2.40;;;14.60;99.90;;;;;;5068488;28;20924;-70
2023/04/29 07:34:56;;;;;;;3.90;2.37;;;14.60;99.90;;;;;;5068493;28;20476;-71
2023/04/29 07:37:22;;;;;;;5.07;3.33;;;14.80;99.90;;;;;;5068613;28;20465;-70
2023/04/29 07:39:47;;;;;;;8.70;3.30;;;15.00;99.90;;;;;;5068134;28;20608;-70
2023/04/29 07:42:13;;;;;;;3.30;2.73;;;15.40;99.90;;;;;;5068780;28;20284;-70
2023/04/29 07:44:39;;;;;;;2.27;2.07;;;15.70;99.90;;;;;;5068787;28;20204;-70
2023/04/29 07:47:05;;;;;;;1.70;1.60;;;15.90;99.90;;;;;;5068627;28;20220;-70
2023/04/29 07:49:30;;;;;;;1.80;1.70;;;16.10;99.90;;;;;;5068926;28;20572;-70
2023/04/29 07:51:56;;;;;;;6.70;1.70;;;16.30;99.90;;;;;;5068847;28;20430;-70
2023/04/29 07:54:22;;;;;;;1.33;1.23;;;16.50;99.90;;;;;;5068117;28;20207;-70
2023/04/29 07:56:48;;;;;;;7.70;2.07;;;16.50;99.90;;;;;;5068173;28;20191;-70
2023/04/29 07:59:14;;;;;;;3.50;1.30;;;16.60;99.90;;;;;;5068065;28;20472;-71
2023/04/29 08:01:41;;;;;;;1.70;1.60;;;16.70;99.90;;;;;;5068016;28;20327;-70
2023/04/29 08:04:06;;;;;;;2.13;1.90;;;16.70;99.90;;;;;;5068401;28;20502;-71
2023/04/29 08:06:33;;;;;;;1.63;1.53;;;16.50;99.90;;;;;;5068416;28;20932;-71
2023/04/29 08:08:58;;;;;;;1.53;1.30;;;16.50;99.90;;;;;;5068044;28;20266;-71
2023/04/29 08:11:25;;;;;;;1.53;1.43;;;16.40;99.90;;;;;;5068104;28;20567;-71
2023/04/29 08:13:51;;;;;;;2.80;1.97;;;16.20;99.90;;;;;;5068359;28;20679;-71
2023/04/29 08:16:16;;;;;;;1.47;1.37;;;16.10;99.90;;;;;;5068259;28;20450;-70
2023/04/29 08:18:42;;;;;;;1.20;0.93;;;15.90;99.90;;;;;;5068054;28;20194;-70
2023/04/29 08:21:10;;;;;;;1.17;1.07;;;15.60;99.90;;;;;;5067979;28;20231;-70
2023/04/29 08:23:36;;;;;;;1.30;1.07;;;15.40;99.90;;;;;;5067836;28;20185;-70
2023/04/29 08:26:02;;;;;;;1.30;1.20;;;15.40;99.90;;;;;;5067313;28;20440;-69
2023/04/29 08:28:28;;;;;;;2.80;1.03;;;15.90;99.90;;;;;;5067632;28;20422;-70
2023/04/29 08:30:54;;;;;;;3.53;1.60;;;16.30;99.90;;;;;;5068238;28;20575;-70
2023/04/29 08:33:20;;;;;;;1.60;1.50;;;16.60;99.90;;;;;;5067984;28;20268;-71
2023/04/29 08:35:45;;;;;;;1.27;1.17;;;16.90;99.90;;;;;;5066507;28;20936;-71
2023/04/29 08:38:11;;;;;;;1.57;1.13;;;16.80;99.90;;;;;;5067810;28;20238;-71
2023/04/29 08:40:42;;;;;;;1.30;1.20;;;16.60;99.90;;;;;;5067347;28;20601;-71
2023/04/29 08:43:09;;;;;;;1.87;1.17;;;16.30;99.90;;;;;;5068014;28;20186;-71
2023/04/29 08:45:35;;;;;;;1.30;1.07;;;16.20;99.90;;;;;;5067714;28;20487;-71
2023/04/29 08:48:05;;;;;;;0.80;0.80;;;16.40;99.90;;;;;;5066208;28;20510;-71
2023/04/29 08:50:35;;;;;;;1.30;0.87;;;16.80;99.90;;;;;;5068000;28;20421;-71
2023/04/29 08:53:01;;;;;;;1.40;1.10;;;17.30;99.90;;;;;;5067455;28;20425;-71
2023/04/29 08:55:27;;;;;;;1.63;0.80;;;17.50;99.90;;;;;;5067396;28;20453;-71
2023/04/29 08:57:55;;;;;;;1.00;0.90;;;17.80;99.90;;;;;;5067579;28;20196;-71
2023/04/29 09:00:23;;;;;;;1.47;0.63;;;18.10;99.90;;;;;;5067549;28;20220;-70
2023/04/29 09:02:50;;;;;;;1.10;0.80;;;18.30;99.90;;;;;;5067186;28;20800;-71
2023/04/29 09:05:16;;;;;;;1.13;0.90;;;18.70;99.90;;;;;;5067164;28;20771;-71
2023/04/29 09:07:44;;;;;;;2.90;0.90;;;18.70;99.90;;;;;;5066946;28;20428;-71
2023/04/29 09:10:10;;;;;;;3.40;0.87;;;18.20;99.90;;;;;;5067042;28;20472;-70
2023/04/29 09:12:36;;;;;;;3.23;0.70;;;17.90;99.90;;;;;;5066869;28;20774;-71
2023/04/29 09:15:03;;;;;;;0.90;0.60;;;18.10;99.90;;;;;;5066731;28;20455;-71
2023/04/29 09:17:38;;;;;;;1.23;0.80;;;18.30;99.90;;;;;;5066996;28;20200;-71
2023/04/29 09:20:24;;;;;;;1.00;0.70;;;18.00;99.90;;;;;;5067146;28;20549;-70
2023/04/29 09:23:02;;;;;;;0.80;0.60;;;18.20;99.90;;;;;;5067094;28;20428;-70
2023/04/29 09:25:28;;;;;;;0.93;0.67;;;19.00;99.90;;;;;;5067430;28;20439;-70
2023/04/29 09:27:54;;;;;;;1.70;0.90;;;18.90;99.00;;;;;;5067179;28;20762;-71
2023/04/29 09:30:21;;;;;;;1.07;0.97;;;18.70;99.50;;;;;;5082240;28;20429;-70
2023/04/29 09:33:07;;;;;;;2.80;0.87;;;18.40;99.90;;;;;;5066838;28;20484;-70
2023/04/29 09:35:33;;;;;;;1.87;1.17;;;18.00;99.90;;;;;;5066590;28;20987;-70
2023/04/29 09:38:13;;;;;;;2.23;0.80;;;17.60;99.90;;;;;;5068760;28;20421;-70
2023/04/29 09:40:40;;;;;;;2.90;1.57;;;17.50;99.90;;;;;;5070733;28;20898;-70
2023/04/29 09:43:17;;;;;;;1.00;0.90;;;17.40;99.90;;;;;;5070773;28;20914;-69
2023/04/29 09:45:46;;;;;;;4.10;1.00;;;17.40;99.90;;;;;;5070422;28;20473;-70
2023/04/29 09:48:13;;;;;;;1.00;0.90;;;17.40;99.90;;;;;;5070610;28;20428;-70
2023/04/29 09:50:40;;;;;;;2.17;1.30;;;17.40;99.90;;;;;;5070581;28;20476;-70
2023/04/29 09:53:08;;;;;;;6.53;1.70;;;17.80;99.90;;;;;;5070348;28;20798;-70
2023/04/29 09:56:04;;;;;;;8.53;2.00;;;18.90;99.90;;;;;;5070176;28;20455;-70
2023/04/29 09:58:37;;;;;;;4.40;1.00;;;19.40;99.90;;;;;;5069919;28;20441;-71
2023/04/29 10:01:04;;;;;;;2.87;1.60;;;20.20;99.90;;;;;;5070375;28;20482;-70
2023/04/29 10:03:33;;;;;;;1.83;1.00;;;20.20;97.60;;;;;;5070057;28;20437;-70
2023/04/29 10:05:59;;;;;;;1.53;1.00;;;19.60;96.20;;;;;;5070103;28;20449;-70
2023/04/29 10:08:26;;;;;;;2.83;1.00;;;19.10;97.50;;;;;;5070083;28;20749;-70
2023/04/29 10:10:56;;;;;;;1.97;0.90;;;18.80;99.90;;;;;;5070172;28;20428;-70
2023/04/29 10:13:25;;;;;;;8.13;1.67;;;19.60;99.90;;;;;;5069974;28;20426;-70
2023/04/29 10:16:05;;;;;;;8.93;3.17;;;20.20;99.00;;;;;;5070030;28;20444;-70
2023/04/29 10:18:43;;;;;;;9.17;1.37;;;20.50;97.10;;;;;;5069953;28;20420;-70
2023/04/29 10:21:10;;;;;;;3.23;0.90;;;20.10;96.10;;;;;;5069779;28;20460;-70
2023/04/29 10:23:36;;;;;;;10.77;1.47;;;19.60;97.10;;;;;;5069969;28;20428;-70
2023/04/29 10:26:03;;;;;;;2.00;1.37;;;19.00;98.70;;;;;;5069746;28;20528;-70
2023/04/29 10:28:31;;;;;;;2.40;1.57;;;18.60;99.90;;;;;;5069840;28;20413;-70
2023/04/29 10:31:01;;;;;;;2.63;1.10;;;18.30;99.90;;;;;;5069665;28;20432;-70
2023/04/29 10:33:30;;;;;;;2.50;1.60;;;18.20;99.90;;;;;;5070112;28;20919;-70
2023/04/29 10:35:56;;;;;;;28.97;8.90;;;17.90;99.90;;;;;;5069527;28;20455;-70
2023/04/29 10:38:44;;;;;;;1.67;1.37;;;18.00;99.90;;;;;;5069475;28;20988;-70
2023/04/29 10:41:24;;;;;;;5.43;2.40;;;18.60;99.90;;;;;;5069441;28;20540;-70
2023/04/29 10:43:51;;;;;;;2.37;1.70;;;19.40;99.90;;;;;;5069849;28;20425;-70
2023/04/29 10:46:27;;;;;;;2.10;1.90;;;19.70;99.90;;;;;;5070055;28;20438;-69
2023/04/29 10:49:11;;;;;;;2.33;2.13;;;19.50;99.90;;;;;;5069992;28;20910;-70
2023/04/29 10:51:42;;;;;;;3.10;1.80;;;18.80;99.90;;;;;;5070980;28;20428;-70
2023/04/29 10:54:13;;;;;;;2.47;1.80;;;18.40;99.90;;;;;;5069680;28;20519;-69
2023/04/29 10:56:51;;;;;;;1.83;1.73;;;18.20;99.90;;;;;;5069525;28;20836;-69
2023/04/29 10:59:21;;;;;;;2.90;1.70;;;17.90;99.90;;;;;;5069572;28;20416;-70
2023/04/29 11:01:52;;;;;;;2.53;1.60;;;18.00;99.90;;;;;;5069499;28;20784;-69
2023/04/29 11:04:19;;;;;;;4.27;1.97;;;19.00;99.90;;;;;;5069652;28;20441;-70
2023/04/29 11:06:57;;;;;;;3.77;2.20;;;19.00;99.90;;;;;;5069046;28;20444;-68
2023/04/29 11:09:24;;;;;;;4.47;2.50;;;18.60;99.90;;;;;;5069193;28;20547;-70
2023/04/29 11:12:01;;;;;;;3.67;2.07;;;18.30;99.90;;;;;;5069206;28;20908;-70
2023/04/29 11:14:39;;;;;;;3.97;1.70;;;18.30;99.90;;;;;;5069192;28;20879;-70
2023/04/29 11:17:11;;;;;;;3.60;1.90;;;18.20;99.90;;;;;;5068842;28;20422;-69
2023/04/29 11:19:41;;;;;;;3.93;1.57;;;18.70;99.90;;;;;;5068689;28;20470;-70
2023/04/29 11:22:13;;;;;;;2.40;2.20;;;18.80;99.90;;;;;;5084307;28;21042;-70
2023/04/29 11:24:51;;;;;;;2.00;1.90;;;18.70;99.90;;;;;;5068665;28;20591;-70
2023/04/29 11:27:19;;;;;;;2.73;1.67;;;18.80;99.90;;;;;;5069084;28;20418;-70
2023/04/29 11:29:46;;;;;;;1.70;1.40;;;18.90;99.90;;;;;;5068541;28;20428;-70
2023/04/29 11:32:12;;;;;;;6.13;2.40;;;18.90;99.90;;;;;;5068417;28;20432;-70
2023/04/29 11:34:37;;;;;;;3.80;2.20;;;18.70;99.90;;;;;;5066836;28;20529;-69
2023/04/29 11:37:04;;;;;;;5.97;2.00;;;18.60;99.90;;;;;;5068467;28;20202;-70
2023/04/29 11:39:34;;;;;;;3.33;1.97;;;18.40;99.90;;;;;;5068292;28;20842;-70
2023/04/29 11:42:04;;;;;;;1.70;1.40;;;18.30;99.90;;;;;;5068399;28;20800;-70
2023/04/29 11:44:35;;;;;;;1.80;1.47;;;18.10;99.90;;;;;;5068118;28;20434;-70
2023/04/29 11:47:04;;;;;;;3.10;1.60;;;18.30;99.90;;;;;;5068469;28;20418;-71
2023/04/29 11:49:34;;;;;;;2.87;1.17;;;18.80;99.90;;;;;;5068211;28;20527;-70
2023/04/29 11:52:00;;;;;;;1.53;1.00;;;19.40;99.90;;;;;;5068208;28;20831;-69
2023/04/29 11:54:29;;;;;;;1.80;1.57;;;19.50;99.90;;;;;;5067966;28;20441;-71
2023/04/29 11:56:55;;;;;;;1.63;1.30;;;20.00;99.90;;;;;;5067897;28;20467;-70
2023/04/29 11:59:21;;;;;;;3.13;1.77;;;19.80;99.90;;;;;;5067605;28;20481;-71
2023/04/29 12:01:48;;;;;;;2.17;1.97;;;19.70;99.90;;;;;;5067772;28;20425;-71
2023/04/29 12:04:15;;;;;;;2.00;1.80;;;19.20;99.90;;;;;;5067929;28;20429;-71
2023/04/29 12:06:41;;;;;;;2.33;2.23;;;18.60;99.90;;;;;;5067964;28;20489;-71
2023/04/29 12:09:07;;;;;;;2.20;2.00;;;18.30;99.90;;;;;;5067846;28;20438;-70
2023/04/29 12:11:34;;;;;;;3.63;2.00;;;18.10;99.90;;;;;;5067802;28;20937;-69
2023/04/29 12:14:02;;;;;;;4.20;2.20;;;18.00;99.90;;;;;;5067637;28;20424;-69
2023/04/29 12:16:29;;;;;;;3.33;2.00;;;17.90;99.90;;;;;;5067853;28;20797;-69
2023/04/29 12:18:55;;;;;;;2.13;1.73;;;18.10;99.90;;;;;;5067774;28;20529;-69
2023/04/29 12:21:21;;;;;;;2.00;1.90;;;18.20;99.90;;;;;;5067527;28;20550;-69
2023/04/29 12:23:47;;;;;;;2.03;1.93;;;18.00;99.90;;;;;;5067808;28;20421;-69
2023/04/29 12:26:13;;;;;;;2.03;1.93;;;17.80;99.90;;;;;;5067441;28;20842;-69
2023/04/29 12:28:42;;;;;;;2.90;2.00;;;17.70;99.90;;;;;;5082979;28;20976;-69
2023/04/29 12:31:12;;;;;;;2.33;1.83;;;17.60;99.90;;;;;;5068149;28;20914;-70
2023/04/29 12:33:41;;;;;;;4.80;2.30;;;17.70;99.90;;;;;;5068185;28;20424;-70
2023/04/29 12:36:17;;;;;;;2.90;2.37;;;17.70;99.90;;;;;;5068242;28;20448;-70
2023/04/29 12:38:44;;;;;;;2.33;2.13;;;17.80;99.90;;;;;;5067883;28;20437;-70
2023/04/29 12:41:12;;;;;;;6.30;2.27;;;17.80;99.90;;;;;;5067854;28;20561;-70
2023/04/29 12:43:38;;;;;;;2.80;2.43;;;17.80;99.90;;;;;;5067874;28;20916;-71
2023/04/29 12:46:08;;;;;;;2.77;2.50;;;17.80;99.90;;;;;;5067878;28;20439;-70
2023/04/29 12:48:42;;;;;;;4.10;2.33;;;17.90;99.90;;;;;;5067693;28;20551;-70
2023/04/29 12:51:09;;;;;;;2.83;2.07;;;18.10;99.90;;;;;;5068125;28;20424;-70